sensor_id;sensor_type;location;lat;lon;timestamp;P1;durP1;ratioP1;P2;durP2;ratioP2
83115;SDS011;72996;40.206;44.498;2024-03-02T00:00:08;31.35;;;14.20;;
83115;SDS011;72996;40.206;44.498;2024-03-02T00:02:45;29.20;;;14.70;;
83115;SDS011;72996;40.206;44.498;2024-03-02T00:05:15;31.25;;;13.95;;
83115;SDS011;72996;40.206;44.498;2024-03-02T00:07:42;29.63;;;13.60;;
83115;SDS011;72996;40.206;44.498;2024-03-02T00:10:09;29.52;;;13.43;;
83115;SDS011;72996;40.206;44.498;2024-03-02T00:12:39;28.00;;;12.80;;
83115;SDS011;72996;40.206;44.498;2024-03-02T00:15:13;30.65;;;12.63;;
83115;SDS011;72996;40.206;44.498;2024-03-02T00:17:53;28.75;;;12.18;;
83115;SDS011;72996;40.206;44.498;2024-03-02T00:20:21;28.73;;;11.98;;
83115;SDS011;72996;40.206;44.498;2024-03-02T00:22:48;22.65;;;11.35;;
83115;SDS011;72996;40.206;44.498;2024-03-02T00:25:15;31.50;;;12.98;;
83115;SDS011;72996;40.206;44.498;2024-03-02T00:27:42;26.90;;;11.35;;
83115;SDS011;72996;40.206;44.498;2024-03-02T00:33:18;25.73;;;10.25;;
83115;SDS011;72996;40.206;44.498;2024-03-02T00:35:46;27.27;;;10.57;;
83115;SDS011;72996;40.206;44.498;2024-03-02T00:38:12;24.95;;;11.25;;
83115;SDS011;72996;40.206;44.498;2024-03-02T00:40:40;25.95;;;10.90;;
83115;SDS011;72996;40.206;44.498;2024-03-02T00:43:10;23.15;;;10.85;;
83115;SDS011;72996;40.206;44.498;2024-03-02T00:45:54;26.92;;;11.23;;
83115;SDS011;72996;40.206;44.498;2024-03-02T00:48:20;23.63;;;11.40;;
83115;SDS011;72996;40.206;44.498;2024-03-02T00:50:46;28.55;;;12.68;;
83115;SDS011;72996;40.206;44.498;2024-03-02T00:53:17;26.05;;;12.00;;
83115;SDS011;72996;40.206;44.498;2024-03-02T00:55:49;28.85;;;13.00;;
83115;SDS011;72996;40.206;44.498;2024-03-02T00:58:15;31.90;;;14.05;;
83115;SDS011;72996;40.206;44.498;2024-03-02T01:00:41;32.70;;;14.23;;
83115;SDS011;72996;40.206;44.498;2024-03-02T01:03:06;35.22;;;15.50;;
83115;SDS011;72996;40.206;44.498;2024-03-02T01:05:33;32.78;;;15.07;;
83115;SDS011;72996;40.206;44.498;2024-03-02T01:07:59;35.25;;;14.38;;
83115;SDS011;72996;40.206;44.498;2024-03-02T01:10:24;35.30;;;15.15;;
83115;SDS011;72996;40.206;44.498;2024-03-02T01:12:51;32.03;;;14.45;;
83115;SDS011;72996;40.206;44.498;2024-03-02T01:15:17;35.38;;;14.35;;
83115;SDS011;72996;40.206;44.498;2024-03-02T01:17:42;29.42;;;14.60;;
83115;SDS011;72996;40.206;44.498;2024-03-02T01:20:08;29.90;;;13.85;;
83115;SDS011;72996;40.206;44.498;2024-03-02T01:22:34;32.10;;;14.18;;
83115;SDS011;72996;40.206;44.498;2024-03-02T01:25:01;30.92;;;14.43;;
83115;SDS011;72996;40.206;44.498;2024-03-02T01:27:27;30.77;;;14.00;;
83115;SDS011;72996;40.206;44.498;2024-03-02T01:29:53;32.83;;;15.15;;
83115;SDS011;72996;40.206;44.498;2024-03-02T01:32:19;36.30;;;14.98;;
83115;SDS011;72996;40.206;44.498;2024-03-02T01:34:45;33.40;;;14.88;;
83115;SDS011;72996;40.206;44.498;2024-03-02T01:37:11;34.35;;;15.00;;
83115;SDS011;72996;40.206;44.498;2024-03-02T01:39:37;32.20;;;14.10;;
83115;SDS011;72996;40.206;44.498;2024-03-02T01:42:02;33.97;;;13.68;;
83115;SDS011;72996;40.206;44.498;2024-03-02T01:44:28;28.35;;;13.15;;
83115;SDS011;72996;40.206;44.498;2024-03-02T01:46:54;25.27;;;12.20;;
83115;SDS011;72996;40.206;44.498;2024-03-02T01:49:19;28.55;;;12.07;;
83115;SDS011;72996;40.206;44.498;2024-03-02T01:51:45;27.65;;;12.25;;
83115;SDS011;72996;40.206;44.498;2024-03-02T01:54:11;23.15;;;11.73;;
83115;SDS011;72996;40.206;44.498;2024-03-02T01:56:36;29.20;;;12.55;;
83115;SDS011;72996;40.206;44.498;2024-03-02T01:59:02;25.77;;;12.05;;
83115;SDS011;72996;40.206;44.498;2024-03-02T02:01:28;26.25;;;11.75;;
83115;SDS011;72996;40.206;44.498;2024-03-02T02:03:54;26.02;;;11.98;;
83115;SDS011;72996;40.206;44.498;2024-03-02T02:06:20;30.05;;;12.75;;
83115;SDS011;72996;40.206;44.498;2024-03-02T02:08:46;27.50;;;11.45;;
83115;SDS011;72996;40.206;44.498;2024-03-02T02:11:14;29.73;;;11.48;;
83115;SDS011;72996;40.206;44.498;2024-03-02T02:13:41;28.50;;;12.27;;
83115;SDS011;72996;40.206;44.498;2024-03-02T02:16:06;27.20;;;12.63;;
83115;SDS011;72996;40.206;44.498;2024-03-02T02:18:33;28.58;;;12.55;;
83115;SDS011;72996;40.206;44.498;2024-03-02T02:20:59;27.38;;;12.30;;
83115;SDS011;72996;40.206;44.498;2024-03-02T02:23:24;27.92;;;12.63;;
83115;SDS011;72996;40.206;44.498;2024-03-02T02:25:50;27.52;;;12.02;;
83115;SDS011;72996;40.206;44.498;2024-03-02T02:28:16;26.20;;;12.23;;
83115;SDS011;72996;40.206;44.498;2024-03-02T02:30:41;25.98;;;11.27;;
83115;SDS011;72996;40.206;44.498;2024-03-02T02:33:07;26.20;;;11.77;;
83115;SDS011;72996;40.206;44.498;2024-03-02T02:35:34;20.40;;;10.40;;
83115;SDS011;72996;40.206;44.498;2024-03-02T02:37:59;24.10;;;11.55;;
83115;SDS011;72996;40.206;44.498;2024-03-02T02:40:26;24.90;;;11.70;;
83115;SDS011;72996;40.206;44.498;2024-03-02T02:42:54;23.38;;;11.05;;
83115;SDS011;72996;40.206;44.498;2024-03-02T02:45:20;22.75;;;10.85;;
83115;SDS011;72996;40.206;44.498;2024-03-02T02:47:45;22.90;;;11.27;;
83115;SDS011;72996;40.206;44.498;2024-03-02T02:50:11;22.63;;;10.77;;
83115;SDS011;72996;40.206;44.498;2024-03-02T02:52:38;23.13;;;10.32;;
83115;SDS011;72996;40.206;44.498;2024-03-02T02:55:06;25.67;;;10.52;;
83115;SDS011;72996;40.206;44.498;2024-03-02T02:57:33;29.63;;;10.98;;
83115;SDS011;72996;40.206;44.498;2024-03-02T03:00:04;19.98;;;11.07;;
83115;SDS011;72996;40.206;44.498;2024-03-02T03:02:38;25.20;;;11.45;;
83115;SDS011;72996;40.206;44.498;2024-03-02T03:05:04;24.98;;;10.60;;
83115;SDS011;72996;40.206;44.498;2024-03-02T03:07:31;27.95;;;12.35;;
83115;SDS011;72996;40.206;44.498;2024-03-02T03:09:58;25.50;;;12.05;;
83115;SDS011;72996;40.206;44.498;2024-03-02T03:12:23;23.58;;;11.13;;
83115;SDS011;72996;40.206;44.498;2024-03-02T03:14:49;24.38;;;11.07;;
83115;SDS011;72996;40.206;44.498;2024-03-02T03:17:15;25.77;;;11.63;;
83115;SDS011;72996;40.206;44.498;2024-03-02T03:19:40;24.83;;;10.45;;
83115;SDS011;72996;40.206;44.498;2024-03-02T03:22:06;23.38;;;10.50;;
83115;SDS011;72996;40.206;44.498;2024-03-02T03:24:32;26.50;;;12.05;;
83115;SDS011;72996;40.206;44.498;2024-03-02T03:26:58;28.90;;;11.52;;
83115;SDS011;72996;40.206;44.498;2024-03-02T03:29:23;29.88;;;11.25;;
83115;SDS011;72996;40.206;44.498;2024-03-02T03:31:49;30.25;;;10.98;;
83115;SDS011;72996;40.206;44.498;2024-03-02T03:34:15;19.67;;;9.73;;
83115;SDS011;72996;40.206;44.498;2024-03-02T03:36:41;23.92;;;11.50;;
83115;SDS011;72996;40.206;44.498;2024-03-02T03:39:07;24.63;;;10.57;;
83115;SDS011;72996;40.206;44.498;2024-03-02T03:41:33;22.17;;;10.52;;
83115;SDS011;72996;40.206;44.498;2024-03-02T03:43:58;25.52;;;10.60;;
83115;SDS011;72996;40.206;44.498;2024-03-02T03:46:24;23.60;;;10.77;;
83115;SDS011;72996;40.206;44.498;2024-03-02T03:48:50;28.65;;;12.27;;
83115;SDS011;72996;40.206;44.498;2024-03-02T03:51:16;25.42;;;11.57;;
83115;SDS011;72996;40.206;44.498;2024-03-02T03:53:41;28.45;;;14.40;;
83115;SDS011;72996;40.206;44.498;2024-03-02T03:56:07;25.48;;;11.10;;
83115;SDS011;72996;40.206;44.498;2024-03-02T03:58:32;21.60;;;10.93;;
83115;SDS011;72996;40.206;44.498;2024-03-02T04:00:58;25.80;;;11.68;;
83115;SDS011;72996;40.206;44.498;2024-03-02T04:03:24;21.38;;;10.38;;
83115;SDS011;72996;40.206;44.498;2024-03-02T04:05:50;27.60;;;11.55;;
83115;SDS011;72996;40.206;44.498;2024-03-02T04:08:16;26.90;;;11.65;;
83115;SDS011;72996;40.206;44.498;2024-03-02T04:10:42;25.70;;;11.40;;
83115;SDS011;72996;40.206;44.498;2024-03-02T04:13:07;28.63;;;12.55;;
83115;SDS011;72996;40.206;44.498;2024-03-02T04:15:33;28.63;;;12.40;;
83115;SDS011;72996;40.206;44.498;2024-03-02T04:17:59;24.48;;;11.95;;
83115;SDS011;72996;40.206;44.498;2024-03-02T04:20:24;29.40;;;12.93;;
83115;SDS011;72996;40.206;44.498;2024-03-02T04:22:50;23.90;;;12.35;;
83115;SDS011;72996;40.206;44.498;2024-03-02T04:25:16;26.13;;;12.43;;
83115;SDS011;72996;40.206;44.498;2024-03-02T04:27:42;28.13;;;12.15;;
83115;SDS011;72996;40.206;44.498;2024-03-02T04:30:07;26.90;;;12.02;;
83115;SDS011;72996;40.206;44.498;2024-03-02T04:32:33;25.98;;;11.88;;
83115;SDS011;72996;40.206;44.498;2024-03-02T04:34:59;25.98;;;11.48;;
83115;SDS011;72996;40.206;44.498;2024-03-02T04:37:24;27.08;;;12.43;;
83115;SDS011;72996;40.206;44.498;2024-03-02T04:39:50;27.92;;;12.20;;
83115;SDS011;72996;40.206;44.498;2024-03-02T04:42:16;24.27;;;11.65;;
83115;SDS011;72996;40.206;44.498;2024-03-02T04:44:41;27.13;;;15.18;;
83115;SDS011;72996;40.206;44.498;2024-03-02T04:47:07;28.45;;;13.25;;
83115;SDS011;72996;40.206;44.498;2024-03-02T04:49:32;27.65;;;12.52;;
83115;SDS011;72996;40.206;44.498;2024-03-02T04:51:58;29.92;;;14.45;;
83115;SDS011;72996;40.206;44.498;2024-03-02T04:54:24;36.67;;;14.82;;
83115;SDS011;72996;40.206;44.498;2024-03-02T04:56:49;28.42;;;14.75;;
83115;SDS011;72996;40.206;44.498;2024-03-02T04:59:16;32.63;;;15.52;;
83115;SDS011;72996;40.206;44.498;2024-03-02T05:01:42;32.60;;;14.65;;
83115;SDS011;72996;40.206;44.498;2024-03-02T05:04:08;35.38;;;16.52;;
83115;SDS011;72996;40.206;44.498;2024-03-02T05:06:39;29.02;;;13.90;;
83115;SDS011;72996;40.206;44.498;2024-03-02T05:09:08;33.20;;;15.93;;
83115;SDS011;72996;40.206;44.498;2024-03-02T05:11:34;30.67;;;14.07;;
83115;SDS011;72996;40.206;44.498;2024-03-02T05:14:03;30.15;;;13.90;;
83115;SDS011;72996;40.206;44.498;2024-03-02T05:16:32;27.83;;;13.43;;
83115;SDS011;72996;40.206;44.498;2024-03-02T05:18:59;33.25;;;13.75;;
83115;SDS011;72996;40.206;44.498;2024-03-02T05:21:24;29.13;;;13.07;;
83115;SDS011;72996;40.206;44.498;2024-03-02T05:23:50;29.90;;;13.32;;
83115;SDS011;72996;40.206;44.498;2024-03-02T05:26:15;27.20;;;13.57;;
83115;SDS011;72996;40.206;44.498;2024-03-02T05:28:41;32.83;;;13.65;;
83115;SDS011;72996;40.206;44.498;2024-03-02T05:31:10;26.75;;;13.27;;
83115;SDS011;72996;40.206;44.498;2024-03-02T05:33:40;26.83;;;13.07;;
83115;SDS011;72996;40.206;44.498;2024-03-02T05:36:06;28.27;;;12.98;;
83115;SDS011;72996;40.206;44.498;2024-03-02T05:38:32;30.83;;;13.02;;
83115;SDS011;72996;40.206;44.498;2024-03-02T05:40:59;30.10;;;13.45;;
83115;SDS011;72996;40.206;44.498;2024-03-02T05:43:25;31.08;;;14.23;;
83115;SDS011;72996;40.206;44.498;2024-03-02T05:45:51;27.58;;;15.05;;
83115;SDS011;72996;40.206;44.498;2024-03-02T05:48:16;33.85;;;14.55;;
83115;SDS011;72996;40.206;44.498;2024-03-02T05:50:42;31.48;;;14.80;;
83115;SDS011;72996;40.206;44.498;2024-03-02T05:53:07;32.05;;;14.68;;
83115;SDS011;72996;40.206;44.498;2024-03-02T05:55:34;33.28;;;15.93;;
83115;SDS011;72996;40.206;44.498;2024-03-02T05:57:59;40.90;;;18.35;;
83115;SDS011;72996;40.206;44.498;2024-03-02T06:00:31;32.50;;;15.40;;
83115;SDS011;72996;40.206;44.498;2024-03-02T06:02:57;45.28;;;18.10;;
83115;SDS011;72996;40.206;44.498;2024-03-02T06:05:23;29.98;;;16.30;;
83115;SDS011;72996;40.206;44.498;2024-03-02T06:07:49;31.98;;;14.52;;
83115;SDS011;72996;40.206;44.498;2024-03-02T06:10:15;34.33;;;15.98;;
83115;SDS011;72996;40.206;44.498;2024-03-02T06:12:41;31.92;;;14.85;;
83115;SDS011;72996;40.206;44.498;2024-03-02T06:15:07;32.92;;;14.10;;
83115;SDS011;72996;40.206;44.498;2024-03-02T06:17:34;32.42;;;13.43;;
83115;SDS011;72996;40.206;44.498;2024-03-02T06:20:01;35.15;;;14.50;;
83115;SDS011;72996;40.206;44.498;2024-03-02T06:22:27;29.08;;;13.35;;
83115;SDS011;72996;40.206;44.498;2024-03-02T06:24:52;25.40;;;12.10;;
83115;SDS011;72996;40.206;44.498;2024-03-02T06:27:18;27.02;;;13.00;;
83115;SDS011;72996;40.206;44.498;2024-03-02T06:29:44;28.05;;;11.35;;
83115;SDS011;72996;40.206;44.498;2024-03-02T06:32:09;25.83;;;11.93;;
83115;SDS011;72996;40.206;44.498;2024-03-02T06:34:35;28.85;;;12.73;;
83115;SDS011;72996;40.206;44.498;2024-03-02T06:37:00;34.22;;;15.77;;
83115;SDS011;72996;40.206;44.498;2024-03-02T06:39:26;34.75;;;15.27;;
83115;SDS011;72996;40.206;44.498;2024-03-02T06:41:52;34.75;;;15.45;;
83115;SDS011;72996;40.206;44.498;2024-03-02T06:44:17;41.70;;;19.80;;
83115;SDS011;72996;40.206;44.498;2024-03-02T06:46:43;53.25;;;23.42;;
83115;SDS011;72996;40.206;44.498;2024-03-02T06:49:08;92.13;;;37.00;;
83115;SDS011;72996;40.206;44.498;2024-03-02T06:51:35;88.47;;;36.10;;
83115;SDS011;72996;40.206;44.498;2024-03-02T06:54:01;105.60;;;40.47;;
83115;SDS011;72996;40.206;44.498;2024-03-02T06:56:27;106.78;;;38.45;;
83115;SDS011;72996;40.206;44.498;2024-03-02T06:58:53;113.90;;;43.95;;
83115;SDS011;72996;40.206;44.498;2024-03-02T07:01:18;136.68;;;48.85;;
83115;SDS011;72996;40.206;44.498;2024-03-02T07:03:45;169.43;;;59.88;;
83115;SDS011;72996;40.206;44.498;2024-03-02T07:06:11;131.27;;;49.00;;
83115;SDS011;72996;40.206;44.498;2024-03-02T07:08:37;98.65;;;38.03;;
83115;SDS011;72996;40.206;44.498;2024-03-02T07:11:02;71.40;;;28.08;;
83115;SDS011;72996;40.206;44.498;2024-03-02T07:13:28;73.03;;;29.27;;
83115;SDS011;72996;40.206;44.498;2024-03-02T07:15:54;71.70;;;29.75;;
83115;SDS011;72996;40.206;44.498;2024-03-02T07:18:31;80.70;;;33.15;;
83115;SDS011;72996;40.206;44.498;2024-03-02T07:20:57;53.95;;;25.38;;
83115;SDS011;72996;40.206;44.498;2024-03-02T07:23:24;47.03;;;23.85;;
83115;SDS011;72996;40.206;44.498;2024-03-02T07:28:20;43.55;;;21.08;;
83115;SDS011;72996;40.206;44.498;2024-03-02T07:30:46;40.83;;;22.27;;
83115;SDS011;72996;40.206;44.498;2024-03-02T07:33:11;57.13;;;24.92;;
83115;SDS011;72996;40.206;44.498;2024-03-02T07:35:37;46.45;;;22.13;;
83115;SDS011;72996;40.206;44.498;2024-03-02T07:38:02;48.97;;;21.50;;
83115;SDS011;72996;40.206;44.498;2024-03-02T07:40:28;42.97;;;21.08;;
83115;SDS011;72996;40.206;44.498;2024-03-02T07:42:54;50.88;;;23.40;;
83115;SDS011;72996;40.206;44.498;2024-03-02T07:45:20;51.08;;;23.77;;
83115;SDS011;72996;40.206;44.498;2024-03-02T07:47:46;49.55;;;22.83;;
83115;SDS011;72996;40.206;44.498;2024-03-02T07:50:11;56.65;;;25.50;;
83115;SDS011;72996;40.206;44.498;2024-03-02T07:52:37;58.97;;;26.90;;
83115;SDS011;72996;40.206;44.498;2024-03-02T07:55:03;65.82;;;28.77;;
83115;SDS011;72996;40.206;44.498;2024-03-02T07:57:29;68.78;;;28.85;;
83115;SDS011;72996;40.206;44.498;2024-03-02T07:59:54;75.65;;;30.75;;
83115;SDS011;72996;40.206;44.498;2024-03-02T08:02:20;89.40;;;34.70;;
83115;SDS011;72996;40.206;44.498;2024-03-02T08:04:47;91.20;;;35.75;;
83115;SDS011;72996;40.206;44.498;2024-03-02T08:07:12;96.93;;;37.65;;
83115;SDS011;72996;40.206;44.498;2024-03-02T08:09:38;99.50;;;38.63;;
83115;SDS011;72996;40.206;44.498;2024-03-02T08:12:04;103.30;;;38.38;;
83115;SDS011;72996;40.206;44.498;2024-03-02T08:14:30;95.63;;;37.70;;
83115;SDS011;72996;40.206;44.498;2024-03-02T08:16:55;116.22;;;43.38;;
83115;SDS011;72996;40.206;44.498;2024-03-02T08:19:21;97.13;;;38.58;;
83115;SDS011;72996;40.206;44.498;2024-03-02T08:21:48;100.45;;;38.15;;
83115;SDS011;72996;40.206;44.498;2024-03-02T08:24:14;93.03;;;36.65;;
83115;SDS011;72996;40.206;44.498;2024-03-02T08:26:39;82.18;;;35.97;;
83115;SDS011;72996;40.206;44.498;2024-03-02T08:29:05;73.05;;;30.20;;
83115;SDS011;72996;40.206;44.498;2024-03-02T08:31:31;63.97;;;27.27;;
83115;SDS011;72996;40.206;44.498;2024-03-02T08:33:56;112.05;;;46.10;;
83115;SDS011;72996;40.206;44.498;2024-03-02T08:36:25;49.30;;;22.25;;
83115;SDS011;72996;40.206;44.498;2024-03-02T08:38:51;48.25;;;19.80;;
83115;SDS011;72996;40.206;44.498;2024-03-02T08:41:17;45.22;;;18.70;;
83115;SDS011;72996;40.206;44.498;2024-03-02T08:43:43;37.45;;;18.95;;
83115;SDS011;72996;40.206;44.498;2024-03-02T08:46:09;37.78;;;17.90;;
83115;SDS011;72996;40.206;44.498;2024-03-02T08:48:35;31.65;;;15.65;;
83115;SDS011;72996;40.206;44.498;2024-03-02T08:51:01;32.55;;;15.65;;
83115;SDS011;72996;40.206;44.498;2024-03-02T08:53:27;28.10;;;14.00;;
83115;SDS011;72996;40.206;44.498;2024-03-02T08:55:53;29.77;;;14.98;;
83115;SDS011;72996;40.206;44.498;2024-03-02T08:58:20;31.70;;;14.00;;
83115;SDS011;72996;40.206;44.498;2024-03-02T09:00:46;29.60;;;13.32;;
83115;SDS011;72996;40.206;44.498;2024-03-02T09:03:12;27.17;;;13.32;;
83115;SDS011;72996;40.206;44.498;2024-03-02T09:05:38;27.73;;;13.48;;
83115;SDS011;72996;40.206;44.498;2024-03-02T09:08:04;27.33;;;14.13;;
83115;SDS011;72996;40.206;44.498;2024-03-02T09:10:30;27.85;;;12.93;;
83115;SDS011;72996;40.206;44.498;2024-03-02T09:12:55;25.17;;;13.55;;
83115;SDS011;72996;40.206;44.498;2024-03-02T09:15:21;26.23;;;13.90;;
83115;SDS011;72996;40.206;44.498;2024-03-02T09:17:47;34.30;;;20.60;;
83115;SDS011;72996;40.206;44.498;2024-03-02T09:20:12;27.58;;;14.93;;
83115;SDS011;72996;40.206;44.498;2024-03-02T09:22:39;29.58;;;14.50;;
83115;SDS011;72996;40.206;44.498;2024-03-02T09:25:04;30.25;;;16.83;;
83115;SDS011;72996;40.206;44.498;2024-03-02T09:27:36;28.55;;;15.32;;
83115;SDS011;72996;40.206;44.498;2024-03-02T09:30:03;22.95;;;13.38;;
83115;SDS011;72996;40.206;44.498;2024-03-02T09:32:30;40.40;;;21.48;;
83115;SDS011;72996;40.206;44.498;2024-03-02T09:34:56;26.48;;;13.32;;
83115;SDS011;72996;40.206;44.498;2024-03-02T09:37:23;30.05;;;14.45;;
83115;SDS011;72996;40.206;44.498;2024-03-02T09:39:49;31.95;;;17.80;;
83115;SDS011;72996;40.206;44.498;2024-03-02T09:42:15;28.98;;;14.30;;
83115;SDS011;72996;40.206;44.498;2024-03-02T09:44:41;28.85;;;14.07;;
83115;SDS011;72996;40.206;44.498;2024-03-02T09:47:07;31.95;;;20.35;;
83115;SDS011;72996;40.206;44.498;2024-03-02T09:49:34;33.20;;;15.45;;
83115;SDS011;72996;40.206;44.498;2024-03-02T09:52:00;29.92;;;15.15;;
83115;SDS011;72996;40.206;44.498;2024-03-02T09:54:26;34.78;;;20.02;;
83115;SDS011;72996;40.206;44.498;2024-03-02T09:56:52;29.25;;;16.10;;
83115;SDS011;72996;40.206;44.498;2024-03-02T09:59:17;29.27;;;14.32;;
83115;SDS011;72996;40.206;44.498;2024-03-02T10:01:57;29.83;;;14.95;;
83115;SDS011;72996;40.206;44.498;2024-03-02T10:04:28;28.98;;;13.85;;
83115;SDS011;72996;40.206;44.498;2024-03-02T10:07:14;30.23;;;13.27;;
83115;SDS011;72996;40.206;44.498;2024-03-02T10:09:41;27.58;;;14.18;;
83115;SDS011;72996;40.206;44.498;2024-03-02T10:12:08;32.95;;;16.67;;
83115;SDS011;72996;40.206;44.498;2024-03-02T10:14:34;26.60;;;13.93;;
83115;SDS011;72996;40.206;44.498;2024-03-02T10:17:04;26.42;;;14.57;;
83115;SDS011;72996;40.206;44.498;2024-03-02T10:19:31;27.58;;;16.17;;
83115;SDS011;72996;40.206;44.498;2024-03-02T10:22:02;34.53;;;15.55;;
83115;SDS011;72996;40.206;44.498;2024-03-02T10:27:23;38.53;;;14.75;;
83115;SDS011;72996;40.206;44.498;2024-03-02T10:29:51;27.90;;;14.40;;
83115;SDS011;72996;40.206;44.498;2024-03-02T10:32:17;27.15;;;15.80;;
83115;SDS011;72996;40.206;44.498;2024-03-02T10:34:44;29.45;;;14.95;;
83115;SDS011;72996;40.206;44.498;2024-03-02T10:37:11;30.27;;;14.25;;
83115;SDS011;72996;40.206;44.498;2024-03-02T10:39:37;28.38;;;13.80;;
83115;SDS011;72996;40.206;44.498;2024-03-02T10:42:07;28.75;;;13.73;;
83115;SDS011;72996;40.206;44.498;2024-03-02T10:44:33;29.33;;;13.68;;
83115;SDS011;72996;40.206;44.498;2024-03-02T10:47:00;30.27;;;14.27;;
83115;SDS011;72996;40.206;44.498;2024-03-02T10:49:29;23.90;;;12.68;;
83115;SDS011;72996;40.206;44.498;2024-03-02T10:51:57;21.00;;;11.38;;
83115;SDS011;72996;40.206;44.498;2024-03-02T10:54:23;21.23;;;12.02;;
83115;SDS011;72996;40.206;44.498;2024-03-02T10:56:52;21.80;;;12.30;;
83115;SDS011;72996;40.206;44.498;2024-03-02T11:01:55;19.77;;;10.15;;
83115;SDS011;72996;40.206;44.498;2024-03-02T11:04:25;24.15;;;13.45;;
83115;SDS011;72996;40.206;44.498;2024-03-02T11:07:04;22.23;;;10.77;;
83115;SDS011;72996;40.206;44.498;2024-03-02T11:09:36;20.08;;;11.25;;
83115;SDS011;72996;40.206;44.498;2024-03-02T11:14:50;19.40;;;12.05;;
83115;SDS011;72996;40.206;44.498;2024-03-02T11:17:19;24.00;;;11.23;;
83115;SDS011;72996;40.206;44.498;2024-03-02T11:19:45;18.20;;;11.13;;
83115;SDS011;72996;40.206;44.498;2024-03-02T11:22:12;24.90;;;11.32;;
83115;SDS011;72996;40.206;44.498;2024-03-02T11:24:38;21.45;;;11.95;;
83115;SDS011;72996;40.206;44.498;2024-03-02T11:27:05;22.38;;;11.40;;
83115;SDS011;72996;40.206;44.498;2024-03-02T11:32:02;25.58;;;13.13;;
83115;SDS011;72996;40.206;44.498;2024-03-02T11:34:32;23.48;;;12.32;;
83115;SDS011;72996;40.206;44.498;2024-03-02T11:36:59;20.50;;;11.77;;
83115;SDS011;72996;40.206;44.498;2024-03-02T11:39:27;24.23;;;12.52;;
83115;SDS011;72996;40.206;44.498;2024-03-02T11:41:54;28.20;;;12.10;;
83115;SDS011;72996;40.206;44.498;2024-03-02T11:44:21;21.88;;;11.80;;
83115;SDS011;72996;40.206;44.498;2024-03-02T11:46:51;25.63;;;13.77;;
83115;SDS011;72996;40.206;44.498;2024-03-02T11:49:38;20.58;;;11.27;;
83115;SDS011;72996;40.206;44.498;2024-03-02T11:52:07;27.38;;;14.82;;
83115;SDS011;72996;40.206;44.498;2024-03-02T11:57:03;22.85;;;12.15;;
83115;SDS011;72996;40.206;44.498;2024-03-02T11:59:29;23.65;;;12.07;;
83115;SDS011;72996;40.206;44.498;2024-03-02T12:01:55;28.73;;;13.10;;
83115;SDS011;72996;40.206;44.498;2024-03-02T12:04:21;26.45;;;12.98;;
83115;SDS011;72996;40.206;44.498;2024-03-02T12:06:53;24.98;;;13.25;;
83115;SDS011;72996;40.206;44.498;2024-03-02T12:09:21;28.42;;;13.85;;
83115;SDS011;72996;40.206;44.498;2024-03-02T12:11:46;27.55;;;14.25;;
83115;SDS011;72996;40.206;44.498;2024-03-02T12:14:12;29.38;;;14.60;;
83115;SDS011;72996;40.206;44.498;2024-03-02T12:16:38;31.48;;;14.43;;
83115;SDS011;72996;40.206;44.498;2024-03-02T12:19:05;29.85;;;16.05;;
83115;SDS011;72996;40.206;44.498;2024-03-02T12:21:31;32.58;;;15.32;;
83115;SDS011;72996;40.206;44.498;2024-03-02T12:23:57;37.92;;;16.15;;
83115;SDS011;72996;40.206;44.498;2024-03-02T12:26:23;26.75;;;13.88;;
83115;SDS011;72996;40.206;44.498;2024-03-02T12:28:49;56.83;;;34.35;;
83115;SDS011;72996;40.206;44.498;2024-03-02T12:31:15;31.65;;;16.08;;
83115;SDS011;72996;40.206;44.498;2024-03-02T12:33:41;32.75;;;16.92;;
83115;SDS011;72996;40.206;44.498;2024-03-02T12:36:09;35.63;;;22.30;;
83115;SDS011;72996;40.206;44.498;2024-03-02T12:38:37;39.38;;;20.70;;
83115;SDS011;72996;40.206;44.498;2024-03-02T12:41:03;28.90;;;15.10;;
83115;SDS011;72996;40.206;44.498;2024-03-02T12:43:30;28.00;;;13.73;;
83115;SDS011;72996;40.206;44.498;2024-03-02T12:45:56;26.35;;;14.90;;
83115;SDS011;72996;40.206;44.498;2024-03-02T12:48:23;29.38;;;14.65;;
83115;SDS011;72996;40.206;44.498;2024-03-02T12:50:49;29.48;;;15.15;;
83115;SDS011;72996;40.206;44.498;2024-03-02T12:53:15;35.38;;;19.58;;
83115;SDS011;72996;40.206;44.498;2024-03-02T12:55:44;28.73;;;14.73;;
83115;SDS011;72996;40.206;44.498;2024-03-02T12:58:16;49.85;;;23.52;;
83115;SDS011;72996;40.206;44.498;2024-03-02T13:00:44;33.15;;;14.65;;
83115;SDS011;72996;40.206;44.498;2024-03-02T13:03:09;32.88;;;14.80;;
83115;SDS011;72996;40.206;44.498;2024-03-02T13:05:36;28.30;;;14.75;;
83115;SDS011;72996;40.206;44.498;2024-03-02T13:10:40;27.10;;;12.75;;
83115;SDS011;72996;40.206;44.498;2024-03-02T13:13:06;23.52;;;12.88;;
83115;SDS011;72996;40.206;44.498;2024-03-02T13:15:32;26.58;;;12.85;;
83115;SDS011;72996;40.206;44.498;2024-03-02T13:17:59;30.13;;;14.27;;
83115;SDS011;72996;40.206;44.498;2024-03-02T13:20:32;25.48;;;13.27;;
83115;SDS011;72996;40.206;44.498;2024-03-02T13:22:58;29.23;;;14.52;;
83115;SDS011;72996;40.206;44.498;2024-03-02T13:25:23;31.42;;;15.90;;
83115;SDS011;72996;40.206;44.498;2024-03-02T13:27:49;31.10;;;15.02;;
83115;SDS011;72996;40.206;44.498;2024-03-02T13:30:16;25.75;;;13.90;;
83115;SDS011;72996;40.206;44.498;2024-03-02T13:32:41;25.00;;;13.48;;
83115;SDS011;72996;40.206;44.498;2024-03-02T13:35:07;29.05;;;13.40;;
83115;SDS011;72996;40.206;44.498;2024-03-02T13:37:36;26.77;;;14.18;;
83115;SDS011;72996;40.206;44.498;2024-03-02T13:40:03;33.95;;;15.85;;
83115;SDS011;72996;40.206;44.498;2024-03-02T13:42:30;33.95;;;16.52;;
83115;SDS011;72996;40.206;44.498;2024-03-02T13:44:56;31.58;;;16.42;;
83115;SDS011;72996;40.206;44.498;2024-03-02T13:47:22;30.23;;;15.07;;
83115;SDS011;72996;40.206;44.498;2024-03-02T13:49:47;29.83;;;13.77;;
83115;SDS011;72996;40.206;44.498;2024-03-02T13:52:14;27.95;;;14.55;;
83115;SDS011;72996;40.206;44.498;2024-03-02T13:54:42;30.77;;;15.18;;
83115;SDS011;72996;40.206;44.498;2024-03-02T13:57:09;41.05;;;20.05;;
83115;SDS011;72996;40.206;44.498;2024-03-02T13:59:35;26.27;;;13.60;;
83115;SDS011;72996;40.206;44.498;2024-03-02T14:02:01;27.13;;;14.77;;
83115;SDS011;72996;40.206;44.498;2024-03-02T14:04:33;29.63;;;14.70;;
83115;SDS011;72996;40.206;44.498;2024-03-02T14:06:59;28.30;;;14.90;;
83115;SDS011;72996;40.206;44.498;2024-03-02T14:09:25;26.58;;;13.95;;
83115;SDS011;72996;40.206;44.498;2024-03-02T14:11:52;24.65;;;13.85;;
83115;SDS011;72996;40.206;44.498;2024-03-02T14:14:18;27.55;;;13.70;;
83115;SDS011;72996;40.206;44.498;2024-03-02T14:16:44;26.35;;;14.68;;
83115;SDS011;72996;40.206;44.498;2024-03-02T14:19:10;23.67;;;12.82;;
83115;SDS011;72996;40.206;44.498;2024-03-02T14:21:37;24.25;;;13.95;;
83115;SDS011;72996;40.206;44.498;2024-03-02T14:24:03;19.73;;;12.25;;
83115;SDS011;72996;40.206;44.498;2024-03-02T14:26:29;24.45;;;13.90;;